sensor_id;sensor_type;location;lat;lon;timestamp;P1;durP1;ratioP1;P2;durP2;ratioP2
53925;SDS011;39836;52.754;6.866;2022-08-19T00:00:06;6.50;;;5.50;;
53925;SDS011;39836;52.754;6.866;2022-08-19T00:02:35;9.68;;;6.15;;
53925;SDS011;39836;52.754;6.866;2022-08-19T00:05:01;6.35;;;4.57;;
53925;SDS011;39836;52.754;6.866;2022-08-19T00:07:28;5.78;;;4.60;;
53925;SDS011;39836;52.754;6.866;2022-08-19T00:09:53;7.50;;;5.57;;
53925;SDS011;39836;52.754;6.866;2022-08-19T00:12:19;8.57;;;5.90;;
53925;SDS011;39836;52.754;6.866;2022-08-19T00:14:46;13.05;;;6.50;;
53925;SDS011;39836;52.754;6.866;2022-08-19T00:17:12;9.40;;;6.45;;
53925;SDS011;39836;52.754;6.866;2022-08-19T00:19:38;8.27;;;4.82;;
53925;SDS011;39836;52.754;6.866;2022-08-19T00:22:04;7.85;;;4.78;;
53925;SDS011;39836;52.754;6.866;2022-08-19T00:24:30;8.60;;;5.47;;
53925;SDS011;39836;52.754;6.866;2022-08-19T00:26:56;7.32;;;4.80;;
53925;SDS011;39836;52.754;6.866;2022-08-19T00:29:23;6.88;;;5.07;;
53925;SDS011;39836;52.754;6.866;2022-08-19T00:31:50;6.82;;;5.07;;
53925;SDS011;39836;52.754;6.866;2022-08-19T00:34:19;12.98;;;8.63;;
53925;SDS011;39836;52.754;6.866;2022-08-19T00:36:47;12.93;;;10.43;;
53925;SDS011;39836;52.754;6.866;2022-08-19T00:39:13;14.52;;;9.07;;
53925;SDS011;39836;52.754;6.866;2022-08-19T00:41:40;15.07;;;9.18;;
53925;SDS011;39836;52.754;6.866;2022-08-19T00:46:50;14.07;;;10.63;;
53925;SDS011;39836;52.754;6.866;2022-08-19T00:49:41;12.88;;;10.57;;
53925;SDS011;39836;52.754;6.866;2022-08-19T00:52:29;16.25;;;10.73;;
53925;SDS011;39836;52.754;6.866;2022-08-19T00:54:59;19.15;;;12.02;;
53925;SDS011;39836;52.754;6.866;2022-08-19T00:57:29;17.25;;;12.15;;
53925;SDS011;39836;52.754;6.866;2022-08-19T00:59:58;16.30;;;12.98;;
53925;SDS011;39836;52.754;6.866;2022-08-19T01:02:26;19.48;;;14.55;;
53925;SDS011;39836;52.754;6.866;2022-08-19T01:04:54;19.85;;;14.30;;
53925;SDS011;39836;52.754;6.866;2022-08-19T01:07:20;20.77;;;14.65;;
53925;SDS011;39836;52.754;6.866;2022-08-19T01:09:46;17.63;;;13.88;;
53925;SDS011;39836;52.754;6.866;2022-08-19T01:12:12;18.63;;;13.30;;
53925;SDS011;39836;52.754;6.866;2022-08-19T01:14:38;21.55;;;14.93;;
53925;SDS011;39836;52.754;6.866;2022-08-19T01:17:06;17.30;;;14.13;;
53925;SDS011;39836;52.754;6.866;2022-08-19T01:19:35;16.23;;;12.40;;
53925;SDS011;39836;52.754;6.866;2022-08-19T01:24:48;16.75;;;13.35;;
53925;SDS011;39836;52.754;6.866;2022-08-19T01:27:14;16.52;;;12.75;;
53925;SDS011;39836;52.754;6.866;2022-08-19T01:29:40;15.80;;;13.35;;
53925;SDS011;39836;52.754;6.866;2022-08-19T01:32:09;18.67;;;14.15;;
53925;SDS011;39836;52.754;6.866;2022-08-19T01:34:39;16.23;;;13.70;;
53925;SDS011;39836;52.754;6.866;2022-08-19T01:37:06;18.17;;;13.75;;
53925;SDS011;39836;52.754;6.866;2022-08-19T01:39:35;17.90;;;13.10;;
53925;SDS011;39836;52.754;6.866;2022-08-19T01:42:03;15.07;;;11.88;;
53925;SDS011;39836;52.754;6.866;2022-08-19T01:44:30;15.75;;;13.73;;
53925;SDS011;39836;52.754;6.866;2022-08-19T01:46:56;18.08;;;13.38;;
53925;SDS011;39836;52.754;6.866;2022-08-19T01:49:22;19.30;;;13.30;;
53925;SDS011;39836;52.754;6.866;2022-08-19T01:51:51;16.45;;;12.95;;
53925;SDS011;39836;52.754;6.866;2022-08-19T01:54:18;16.23;;;13.02;;
53925;SDS011;39836;52.754;6.866;2022-08-19T01:56:45;16.92;;;13.32;;
53925;SDS011;39836;52.754;6.866;2022-08-19T01:59:16;18.42;;;13.85;;
53925;SDS011;39836;52.754;6.866;2022-08-19T02:01:43;15.73;;;13.82;;
53925;SDS011;39836;52.754;6.866;2022-08-19T02:04:09;18.02;;;13.30;;
53925;SDS011;39836;52.754;6.866;2022-08-19T02:06:35;18.83;;;15.00;;
53925;SDS011;39836;52.754;6.866;2022-08-19T02:09:02;18.83;;;14.35;;
53925;SDS011;39836;52.754;6.866;2022-08-19T02:11:32;19.83;;;14.80;;
53925;SDS011;39836;52.754;6.866;2022-08-19T02:14:01;20.13;;;14.77;;
53925;SDS011;39836;52.754;6.866;2022-08-19T02:16:29;16.02;;;13.73;;
53925;SDS011;39836;52.754;6.866;2022-08-19T02:18:55;18.83;;;13.88;;
53925;SDS011;39836;52.754;6.866;2022-08-19T02:21:22;19.58;;;15.50;;
53925;SDS011;39836;52.754;6.866;2022-08-19T02:23:49;18.02;;;14.70;;
53925;SDS011;39836;52.754;6.866;2022-08-19T02:26:15;18.15;;;14.25;;
53925;SDS011;39836;52.754;6.866;2022-08-19T02:28:41;20.75;;;14.80;;
53925;SDS011;39836;52.754;6.866;2022-08-19T02:31:11;22.73;;;15.38;;
53925;SDS011;39836;52.754;6.866;2022-08-19T02:33:41;17.38;;;13.82;;
53925;SDS011;39836;52.754;6.866;2022-08-19T02:36:07;17.48;;;14.75;;
53925;SDS011;39836;52.754;6.866;2022-08-19T02:38:35;18.55;;;14.40;;
53925;SDS011;39836;52.754;6.866;2022-08-19T02:41:07;16.73;;;13.32;;
53925;SDS011;39836;52.754;6.866;2022-08-19T02:43:36;20.20;;;14.80;;
53925;SDS011;39836;52.754;6.866;2022-08-19T02:46:23;16.40;;;13.85;;
53925;SDS011;39836;52.754;6.866;2022-08-19T02:48:52;17.85;;;14.20;;
53925;SDS011;39836;52.754;6.866;2022-08-19T02:51:21;23.10;;;14.77;;
53925;SDS011;39836;52.754;6.866;2022-08-19T02:53:48;18.63;;;14.20;;
53925;SDS011;39836;52.754;6.866;2022-08-19T02:56:15;11.52;;;9.30;;
53925;SDS011;39836;52.754;6.866;2022-08-19T02:58:41;13.10;;;9.90;;
53925;SDS011;39836;52.754;6.866;2022-08-19T03:01:08;15.70;;;10.02;;
53925;SDS011;39836;52.754;6.866;2022-08-19T03:03:36;15.20;;;11.13;;
53925;SDS011;39836;52.754;6.866;2022-08-19T03:06:09;22.73;;;11.05;;
53925;SDS011;39836;52.754;6.866;2022-08-19T03:08:38;13.10;;;7.18;;
53925;SDS011;39836;52.754;6.866;2022-08-19T03:11:05;15.70;;;11.45;;
53925;SDS011;39836;52.754;6.866;2022-08-19T03:13:36;13.57;;;10.98;;
53925;SDS011;39836;52.754;6.866;2022-08-19T03:16:04;8.07;;;7.05;;
53925;SDS011;39836;52.754;6.866;2022-08-19T03:18:31;8.32;;;6.15;;
53925;SDS011;39836;52.754;6.866;2022-08-19T03:20:57;11.50;;;6.97;;
53925;SDS011;39836;52.754;6.866;2022-08-19T03:23:23;10.48;;;7.95;;
53925;SDS011;39836;52.754;6.866;2022-08-19T03:25:49;11.10;;;8.50;;
53925;SDS011;39836;52.754;6.866;2022-08-19T03:28:16;11.95;;;8.32;;
53925;SDS011;39836;52.754;6.866;2022-08-19T03:30:43;12.15;;;8.48;;
53925;SDS011;39836;52.754;6.866;2022-08-19T03:33:21;12.90;;;8.98;;
53925;SDS011;39836;52.754;6.866;2022-08-19T03:35:58;21.40;;;11.35;;
53925;SDS011;39836;52.754;6.866;2022-08-19T03:38:31;16.13;;;12.25;;
53925;SDS011;39836;52.754;6.866;2022-08-19T03:40:57;70.35;;;13.02;;
53925;SDS011;39836;52.754;6.866;2022-08-19T03:43:26;35.58;;;9.40;;
53925;SDS011;39836;52.754;6.866;2022-08-19T03:46:00;34.20;;;5.65;;
53925;SDS011;39836;52.754;6.866;2022-08-19T03:48:29;13.55;;;6.45;;
53925;SDS011;39836;52.754;6.866;2022-08-19T03:50:55;22.80;;;5.68;;
53925;SDS011;39836;52.754;6.866;2022-08-19T03:53:23;26.70;;;7.07;;
53925;SDS011;39836;52.754;6.866;2022-08-19T03:55:49;10.05;;;6.00;;
53925;SDS011;39836;52.754;6.866;2022-08-19T03:58:15;15.63;;;6.70;;
53925;SDS011;39836;52.754;6.866;2022-08-19T04:00:42;60.05;;;7.88;;
53925;SDS011;39836;52.754;6.866;2022-08-19T04:03:10;59.40;;;10.68;;
53925;SDS011;39836;52.754;6.866;2022-08-19T04:05:35;13.23;;;7.55;;
53925;SDS011;39836;52.754;6.866;2022-08-19T04:08:03;48.38;;;9.35;;
53925;SDS011;39836;52.754;6.866;2022-08-19T04:10:31;12.52;;;9.35;;
53925;SDS011;39836;52.754;6.866;2022-08-19T04:13:01;15.70;;;9.85;;
53925;SDS011;39836;52.754;6.866;2022-08-19T04:15:29;15.77;;;10.90;;
53925;SDS011;39836;52.754;6.866;2022-08-19T04:17:58;17.60;;;11.20;;
53925;SDS011;39836;52.754;6.866;2022-08-19T04:20:24;15.30;;;10.60;;
53925;SDS011;39836;52.754;6.866;2022-08-19T04:22:51;15.27;;;12.15;;
53925;SDS011;39836;52.754;6.866;2022-08-19T04:25:18;15.85;;;11.98;;
53925;SDS011;39836;52.754;6.866;2022-08-19T04:27:44;15.02;;;11.90;;
53925;SDS011;39836;52.754;6.866;2022-08-19T04:30:12;13.00;;;9.20;;
53925;SDS011;39836;52.754;6.866;2022-08-19T04:32:38;9.35;;;5.93;;
53925;SDS011;39836;52.754;6.866;2022-08-19T04:35:04;9.02;;;7.60;;
53925;SDS011;39836;52.754;6.866;2022-08-19T04:37:30;12.30;;;9.45;;
53925;SDS011;39836;52.754;6.866;2022-08-19T04:39:58;10.98;;;9.02;;
53925;SDS011;39836;52.754;6.866;2022-08-19T04:42:42;12.02;;;9.13;;
53925;SDS011;39836;52.754;6.866;2022-08-19T04:45:10;14.35;;;9.43;;
53925;SDS011;39836;52.754;6.866;2022-08-19T04:47:39;16.85;;;10.95;;
53925;SDS011;39836;52.754;6.866;2022-08-19T04:50:07;12.52;;;10.07;;
53925;SDS011;39836;52.754;6.866;2022-08-19T04:52:37;7.03;;;5.45;;
53925;SDS011;39836;52.754;6.866;2022-08-19T04:55:08;6.90;;;5.60;;
53925;SDS011;39836;52.754;6.866;2022-08-19T04:57:35;10.50;;;8.15;;
53925;SDS011;39836;52.754;6.866;2022-08-19T05:00:05;12.73;;;9.45;;
53925;SDS011;39836;52.754;6.866;2022-08-19T05:02:32;14.80;;;11.23;;
53925;SDS011;39836;52.754;6.866;2022-08-19T05:04:59;15.55;;;10.93;;
53925;SDS011;39836;52.754;6.866;2022-08-19T05:07:25;12.35;;;9.10;;
53925;SDS011;39836;52.754;6.866;2022-08-19T05:09:51;11.55;;;8.60;;
53925;SDS011;39836;52.754;6.866;2022-08-19T05:12:17;14.13;;;9.88;;
53925;SDS011;39836;52.754;6.866;2022-08-19T05:14:44;13.30;;;10.35;;
53925;SDS011;39836;52.754;6.866;2022-08-19T05:17:12;12.15;;;9.23;;
53925;SDS011;39836;52.754;6.866;2022-08-19T05:19:38;15.68;;;9.40;;
53925;SDS011;39836;52.754;6.866;2022-08-19T05:22:22;14.27;;;10.45;;
53925;SDS011;39836;52.754;6.866;2022-08-19T05:24:57;13.90;;;9.48;;
53925;SDS011;39836;52.754;6.866;2022-08-19T05:27:23;12.27;;;8.93;;
53925;SDS011;39836;52.754;6.866;2022-08-19T05:29:49;10.15;;;7.60;;
53925;SDS011;39836;52.754;6.866;2022-08-19T05:32:15;10.05;;;6.68;;
53925;SDS011;39836;52.754;6.866;2022-08-19T05:34:40;8.82;;;7.00;;
53925;SDS011;39836;52.754;6.866;2022-08-19T05:37:06;10.05;;;7.90;;
53925;SDS011;39836;52.754;6.866;2022-08-19T05:39:33;9.80;;;7.43;;
53925;SDS011;39836;52.754;6.866;2022-08-19T05:42:03;10.27;;;6.60;;
53925;SDS011;39836;52.754;6.866;2022-08-19T05:44:34;9.50;;;7.25;;
53925;SDS011;39836;52.754;6.866;2022-08-19T05:47:02;14.18;;;9.18;;
53925;SDS011;39836;52.754;6.866;2022-08-19T05:49:30;14.55;;;10.63;;
53925;SDS011;39836;52.754;6.866;2022-08-19T05:51:57;15.40;;;11.93;;
53925;SDS011;39836;52.754;6.866;2022-08-19T05:54:24;17.35;;;12.70;;
53925;SDS011;39836;52.754;6.866;2022-08-19T05:56:51;18.00;;;13.93;;
53925;SDS011;39836;52.754;6.866;2022-08-19T05:59:17;20.48;;;15.00;;
53925;SDS011;39836;52.754;6.866;2022-08-19T06:01:46;21.95;;;17.10;;
53925;SDS011;39836;52.754;6.866;2022-08-19T06:04:15;26.77;;;18.40;;
53925;SDS011;39836;52.754;6.866;2022-08-19T06:06:48;27.92;;;20.35;;
53925;SDS011;39836;52.754;6.866;2022-08-19T06:09:16;31.48;;;20.77;;
53925;SDS011;39836;52.754;6.866;2022-08-19T06:11:44;27.55;;;19.75;;
53925;SDS011;39836;52.754;6.866;2022-08-19T06:14:16;27.20;;;18.60;;
53925;SDS011;39836;52.754;6.866;2022-08-19T06:16:44;29.65;;;20.75;;
53925;SDS011;39836;52.754;6.866;2022-08-19T06:19:12;27.83;;;19.40;;
53925;SDS011;39836;52.754;6.866;2022-08-19T06:21:41;32.33;;;22.40;;
53925;SDS011;39836;52.754;6.866;2022-08-19T06:24:10;33.97;;;24.17;;
53925;SDS011;39836;52.754;6.866;2022-08-19T06:26:40;38.92;;;26.10;;
53925;SDS011;39836;52.754;6.866;2022-08-19T06:29:09;38.08;;;26.25;;
53925;SDS011;39836;52.754;6.866;2022-08-19T06:31:36;35.15;;;25.23;;
53925;SDS011;39836;52.754;6.866;2022-08-19T06:34:04;37.47;;;24.80;;
53925;SDS011;39836;52.754;6.866;2022-08-19T06:36:41;35.13;;;24.67;;
53925;SDS011;39836;52.754;6.866;2022-08-19T06:39:11;36.35;;;25.35;;
53925;SDS011;39836;52.754;6.866;2022-08-19T06:41:43;44.78;;;27.65;;
53925;SDS011;39836;52.754;6.866;2022-08-19T06:44:10;39.10;;;26.65;;
53925;SDS011;39836;52.754;6.866;2022-08-19T06:46:37;39.80;;;26.73;;
53925;SDS011;39836;52.754;6.866;2022-08-19T06:49:04;39.25;;;25.13;;
53925;SDS011;39836;52.754;6.866;2022-08-19T06:51:31;33.85;;;24.67;;
53925;SDS011;39836;52.754;6.866;2022-08-19T06:53:57;41.05;;;26.88;;
53925;SDS011;39836;52.754;6.866;2022-08-19T06:56:28;39.97;;;27.65;;
53925;SDS011;39836;52.754;6.866;2022-08-19T06:59:03;44.38;;;28.85;;
53925;SDS011;39836;52.754;6.866;2022-08-19T07:01:39;41.88;;;27.55;;
53925;SDS011;39836;52.754;6.866;2022-08-19T07:04:26;41.58;;;28.02;;
53925;SDS011;39836;52.754;6.866;2022-08-19T07:07:01;44.88;;;28.23;;
53925;SDS011;39836;52.754;6.866;2022-08-19T07:09:42;36.30;;;26.67;;
53925;SDS011;39836;52.754;6.866;2022-08-19T07:12:10;41.17;;;28.02;;
53925;SDS011;39836;52.754;6.866;2022-08-19T07:14:39;35.20;;;24.95;;
53925;SDS011;39836;52.754;6.866;2022-08-19T07:17:06;40.92;;;25.80;;
53925;SDS011;39836;52.754;6.866;2022-08-19T07:19:33;37.72;;;25.60;;
53925;SDS011;39836;52.754;6.866;2022-08-19T07:22:01;39.05;;;24.98;;
53925;SDS011;39836;52.754;6.866;2022-08-19T07:24:28;35.67;;;23.50;;
53925;SDS011;39836;52.754;6.866;2022-08-19T07:26:56;34.40;;;24.10;;
53925;SDS011;39836;52.754;6.866;2022-08-19T07:29:25;28.60;;;23.13;;
53925;SDS011;39836;52.754;6.866;2022-08-19T07:31:52;31.77;;;22.55;;
53925;SDS011;39836;52.754;6.866;2022-08-19T07:34:21;32.35;;;23.35;;
53925;SDS011;39836;52.754;6.866;2022-08-19T07:36:48;32.28;;;24.73;;
53925;SDS011;39836;52.754;6.866;2022-08-19T07:39:15;34.20;;;24.75;;
53925;SDS011;39836;52.754;6.866;2022-08-19T07:41:43;31.50;;;23.35;;
53925;SDS011;39836;52.754;6.866;2022-08-19T07:44:10;33.35;;;24.00;;
53925;SDS011;39836;52.754;6.866;2022-08-19T07:46:38;32.10;;;24.48;;
53925;SDS011;39836;52.754;6.866;2022-08-19T07:49:07;36.00;;;25.05;;
53925;SDS011;39836;52.754;6.866;2022-08-19T07:51:38;32.03;;;23.23;;
53925;SDS011;39836;52.754;6.866;2022-08-19T07:54:04;31.65;;;25.17;;
53925;SDS011;39836;52.754;6.866;2022-08-19T07:56:30;31.60;;;25.08;;
53925;SDS011;39836;52.754;6.866;2022-08-19T07:58:56;31.67;;;24.05;;
53925;SDS011;39836;52.754;6.866;2022-08-19T08:01:23;33.58;;;24.00;;
53925;SDS011;39836;52.754;6.866;2022-08-19T08:03:51;30.92;;;22.48;;
53925;SDS011;39836;52.754;6.866;2022-08-19T08:06:37;28.02;;;22.73;;
53925;SDS011;39836;52.754;6.866;2022-08-19T08:09:33;30.27;;;21.48;;
53925;SDS011;39836;52.754;6.866;2022-08-19T08:12:03;25.17;;;20.73;;
53925;SDS011;39836;52.754;6.866;2022-08-19T08:14:43;26.48;;;20.13;;
53925;SDS011;39836;52.754;6.866;2022-08-19T08:17:16;28.90;;;19.85;;
53925;SDS011;39836;52.754;6.866;2022-08-19T08:19:47;25.38;;;19.15;;
53925;SDS011;39836;52.754;6.866;2022-08-19T08:22:16;23.58;;;18.90;;
53925;SDS011;39836;52.754;6.866;2022-08-19T08:25:03;25.35;;;18.92;;
53925;SDS011;39836;52.754;6.866;2022-08-19T08:27:31;26.23;;;20.48;;
53925;SDS011;39836;52.754;6.866;2022-08-19T08:30:00;25.05;;;19.98;;
53925;SDS011;39836;52.754;6.866;2022-08-19T08:32:25;24.33;;;21.20;;
53925;SDS011;39836;52.754;6.866;2022-08-19T08:34:52;21.00;;;18.70;;
53925;SDS011;39836;52.754;6.866;2022-08-19T08:37:17;25.48;;;19.77;;
53925;SDS011;39836;52.754;6.866;2022-08-19T08:39:43;25.33;;;20.08;;
53925;SDS011;39836;52.754;6.866;2022-08-19T08:42:12;25.45;;;19.92;;
53925;SDS011;39836;52.754;6.866;2022-08-19T08:44:55;26.85;;;21.02;;
53925;SDS011;39836;52.754;6.866;2022-08-19T08:47:25;29.15;;;23.48;;
53925;SDS011;39836;52.754;6.866;2022-08-19T08:50:31;26.33;;;20.42;;
53925;SDS011;39836;52.754;6.866;2022-08-19T08:53:03;27.65;;;21.90;;
53925;SDS011;39836;52.754;6.866;2022-08-19T08:55:30;30.02;;;22.27;;
53925;SDS011;39836;52.754;6.866;2022-08-19T08:58:09;27.90;;;21.88;;
53925;SDS011;39836;52.754;6.866;2022-08-19T09:00:42;23.48;;;20.25;;
53925;SDS011;39836;52.754;6.866;2022-08-19T09:03:21;27.40;;;20.60;;
53925;SDS011;39836;52.754;6.866;2022-08-19T09:05:55;24.58;;;20.25;;
53925;SDS011;39836;52.754;6.866;2022-08-19T09:08:49;22.55;;;19.17;;
53925;SDS011;39836;52.754;6.866;2022-08-19T09:11:37;22.25;;;17.77;;
53925;SDS011;39836;52.754;6.866;2022-08-19T09:14:12;20.45;;;17.40;;
53925;SDS011;39836;52.754;6.866;2022-08-19T09:16:40;25.67;;;19.92;;
53925;SDS011;39836;52.754;6.866;2022-08-19T09:19:07;21.10;;;17.50;;
53925;SDS011;39836;52.754;6.866;2022-08-19T09:21:34;24.90;;;19.98;;
53925;SDS011;39836;52.754;6.866;2022-08-19T09:24:00;20.42;;;18.17;;
53925;SDS011;39836;52.754;6.866;2022-08-19T09:26:27;20.58;;;17.98;;
53925;SDS011;39836;52.754;6.866;2022-08-19T09:28:53;21.67;;;16.77;;
53925;SDS011;39836;52.754;6.866;2022-08-19T09:31:23;18.98;;;16.20;;
53925;SDS011;39836;52.754;6.866;2022-08-19T09:33:51;16.13;;;14.43;;
53925;SDS011;39836;52.754;6.866;2022-08-19T09:36:23;19.23;;;15.55;;
53925;SDS011;39836;52.754;6.866;2022-08-19T09:38:51;17.65;;;14.55;;
53925;SDS011;39836;52.754;6.866;2022-08-19T09:41:19;15.95;;;14.25;;
53925;SDS011;39836;52.754;6.866;2022-08-19T09:43:46;16.70;;;13.07;;
53925;SDS011;39836;52.754;6.866;2022-08-19T09:46:17;17.40;;;13.50;;
53925;SDS011;39836;52.754;6.866;2022-08-19T09:48:44;17.33;;;14.50;;
53925;SDS011;39836;52.754;6.866;2022-08-19T09:51:14;18.60;;;14.90;;
53925;SDS011;39836;52.754;6.866;2022-08-19T09:53:42;17.52;;;15.65;;
53925;SDS011;39836;52.754;6.866;2022-08-19T09:56:10;15.70;;;13.60;;
53925;SDS011;39836;52.754;6.866;2022-08-19T09:58:37;18.15;;;12.68;;
53925;SDS011;39836;52.754;6.866;2022-08-19T10:01:04;18.95;;;15.63;;
53925;SDS011;39836;52.754;6.866;2022-08-19T10:03:31;17.98;;;14.35;;
53925;SDS011;39836;52.754;6.866;2022-08-19T10:06:00;16.38;;;13.95;;
53925;SDS011;39836;52.754;6.866;2022-08-19T10:08:31;20.20;;;15.32;;
53925;SDS011;39836;52.754;6.866;2022-08-19T10:10:59;20.23;;;14.95;;
53925;SDS011;39836;52.754;6.866;2022-08-19T10:13:27;17.48;;;14.25;;
53925;SDS011;39836;52.754;6.866;2022-08-19T10:15:55;15.98;;;13.48;;
53925;SDS011;39836;52.754;6.866;2022-08-19T10:18:22;16.80;;;14.15;;
53925;SDS011;39836;52.754;6.866;2022-08-19T10:20:49;17.58;;;15.30;;
53925;SDS011;39836;52.754;6.866;2022-08-19T10:23:18;21.38;;;17.77;;
53925;SDS011;39836;52.754;6.866;2022-08-19T10:25:45;22.50;;;17.25;;
53925;SDS011;39836;52.754;6.866;2022-08-19T10:28:11;18.52;;;16.48;;
53925;SDS011;39836;52.754;6.866;2022-08-19T10:30:37;17.15;;;15.07;;
53925;SDS011;39836;52.754;6.866;2022-08-19T10:33:04;18.13;;;13.95;;
53925;SDS011;39836;52.754;6.866;2022-08-19T10:35:31;16.55;;;14.15;;
53925;SDS011;39836;52.754;6.866;2022-08-19T10:37:57;23.63;;;16.40;;
53925;SDS011;39836;52.754;6.866;2022-08-19T10:40:24;18.98;;;14.02;;
53925;SDS011;39836;52.754;6.866;2022-08-19T10:42:51;14.13;;;12.65;;
53925;SDS011;39836;52.754;6.866;2022-08-19T10:45:17;17.48;;;13.73;;
53925;SDS011;39836;52.754;6.866;2022-08-19T10:47:43;17.70;;;11.80;;
53925;SDS011;39836;52.754;6.866;2022-08-19T10:50:09;16.20;;;11.80;;
53925;SDS011;39836;52.754;6.866;2022-08-19T10:52:53;16.23;;;13.18;;
53925;SDS011;39836;52.754;6.866;2022-08-19T10:55:20;15.23;;;13.50;;
53925;SDS011;39836;52.754;6.866;2022-08-19T10:58:13;19.60;;;16.10;;
53925;SDS011;39836;52.754;6.866;2022-08-19T11:00:40;18.02;;;14.32;;
53925;SDS011;39836;52.754;6.866;2022-08-19T11:03:07;19.08;;;12.63;;
53925;SDS011;39836;52.754;6.866;2022-08-19T11:05:33;17.60;;;15.68;;
53925;SDS011;39836;52.754;6.866;2022-08-19T11:07:59;19.52;;;16.80;;
53925;SDS011;39836;52.754;6.866;2022-08-19T11:10:25;18.88;;;14.30;;
53925;SDS011;39836;52.754;6.866;2022-08-19T11:12:50;16.85;;;14.38;;
53925;SDS011;39836;52.754;6.866;2022-08-19T11:15:20;17.20;;;14.23;;
53925;SDS011;39836;52.754;6.866;2022-08-19T11:17:46;16.42;;;14.30;;
53925;SDS011;39836;52.754;6.866;2022-08-19T11:20:12;16.13;;;13.13;;
53925;SDS011;39836;52.754;6.866;2022-08-19T11:22:39;13.43;;;12.05;;
53925;SDS011;39836;52.754;6.866;2022-08-19T11:25:06;14.27;;;10.55;;
53925;SDS011;39836;52.754;6.866;2022-08-19T11:27:33;16.77;;;11.27;;
53925;SDS011;39836;52.754;6.866;2022-08-19T11:29:59;14.63;;;12.32;;
53925;SDS011;39836;52.754;6.866;2022-08-19T11:32:25;16.15;;;11.85;;
53925;SDS011;39836;52.754;6.866;2022-08-19T11:34:51;14.93;;;11.60;;
53925;SDS011;39836;52.754;6.866;2022-08-19T11:37:17;14.32;;;11.90;;
53925;SDS011;39836;52.754;6.866;2022-08-19T11:39:43;12.80;;;11.50;;
53925;SDS011;39836;52.754;6.866;2022-08-19T11:42:08;13.18;;;11.73;;
53925;SDS011;39836;52.754;6.866;2022-08-19T11:44:57;15.40;;;12.23;;
53925;SDS011;39836;52.754;6.866;2022-08-19T11:47:23;13.85;;;12.23;;
53925;SDS011;39836;52.754;6.866;2022-08-19T11:49:49;13.45;;;10.85;;
53925;SDS011;39836;52.754;6.866;2022-08-19T11:52:14;15.50;;;11.00;;
53925;SDS011;39836;52.754;6.866;2022-08-19T11:54:40;12.80;;;11.13;;
53925;SDS011;39836;52.754;6.866;2022-08-19T11:57:06;13.70;;;11.13;;
53925;SDS011;39836;52.754;6.866;2022-08-19T11:59:31;14.07;;;10.45;;
53925;SDS011;39836;52.754;6.866;2022-08-19T12:01:57;13.35;;;9.57;;
53925;SDS011;39836;52.754;6.866;2022-08-19T12:04:24;12.75;;;10.15;;
53925;SDS011;39836;52.754;6.866;2022-08-19T12:06:49;12.23;;;10.93;;
53925;SDS011;39836;52.754;6.866;2022-08-19T12:09:15;11.90;;;10.35;;
53925;SDS011;39836;52.754;6.866;2022-08-19T12:11:42;12.77;;;9.40;;
53925;SDS011;39836;52.754;6.866;2022-08-19T12:14:11;12.07;;;9.82;;
53925;SDS011;39836;52.754;6.866;2022-08-19T12:16:39;13.48;;;10.65;;
53925;SDS011;39836;52.754;6.866;2022-08-19T12:19:06;13.27;;;10.35;;
53925;SDS011;39836;52.754;6.866;2022-08-19T12:21:33;12.30;;;9.65;;
53925;SDS011;39836;52.754;6.866;2022-08-19T12:24:00;10.70;;;9.57;;
53925;SDS011;39836;52.754;6.866;2022-08-19T12:26:27;12.75;;;10.48;;
53925;SDS011;39836;52.754;6.866;2022-08-19T12:28:54;14.68;;;11.27;;
53925;SDS011;39836;52.754;6.866;2022-08-19T12:31:20;16.42;;;10.70;;
53925;SDS011;39836;52.754;6.866;2022-08-19T12:33:46;13.77;;;10.57;;
53925;SDS011;39836;52.754;6.866;2022-08-19T12:36:13;13.25;;;9.88;;
53925;SDS011;39836;52.754;6.866;2022-08-19T12:38:40;10.43;;;8.77;;
53925;SDS011;39836;52.754;6.866;2022-08-19T12:41:08;11.80;;;8.65;;
53925;SDS011;39836;52.754;6.866;2022-08-19T12:43:36;13.07;;;8.23;;
53925;SDS011;39836;52.754;6.866;2022-08-19T12:46:05;10.15;;;6.88;;
53925;SDS011;39836;52.754;6.866;2022-08-19T12:48:32;9.30;;;6.60;;
53925;SDS011;39836;52.754;6.866;2022-08-19T12:50:58;9.05;;;6.38;;
53925;SDS011;39836;52.754;6.866;2022-08-19T12:53:24;9.48;;;6.80;;
53925;SDS011;39836;52.754;6.866;2022-08-19T12:55:56;12.43;;;8.15;;
53925;SDS011;39836;52.754;6.866;2022-08-19T12:58:24;10.27;;;8.20;;
53925;SDS011;39836;52.754;6.866;2022-08-19T13:00:50;13.90;;;8.25;;
53925;SDS011;39836;52.754;6.866;2022-08-19T13:03:16;9.93;;;7.80;;
53925;SDS011;39836;52.754;6.866;2022-08-19T13:05:42;10.77;;;9.55;;
53925;SDS011;39836;52.754;6.866;2022-08-19T13:08:08;11.30;;;10.02;;
53925;SDS011;39836;52.754;6.866;2022-08-19T13:10:34;10.70;;;8.73;;
53925;SDS011;39836;52.754;6.866;2022-08-19T13:13:04;10.45;;;8.63;;
53925;SDS011;39836;52.754;6.866;2022-08-19T13:15:34;10.00;;;8.98;;
53925;SDS011;39836;52.754;6.866;2022-08-19T13:18:01;10.13;;;7.70;;
53925;SDS011;39836;52.754;6.866;2022-08-19T13:20:26;8.95;;;6.57;;
53925;SDS011;39836;52.754;6.866;2022-08-19T13:22:53;9.05;;;7.10;;
53925;SDS011;39836;52.754;6.866;2022-08-19T13:25:19;8.63;;;6.07;;
53925;SDS011;39836;52.754;6.866;2022-08-19T13:27:46;9.30;;;6.85;;
53925;SDS011;39836;52.754;6.866;2022-08-19T13:30:14;9.32;;;6.47;;
53925;SDS011;39836;52.754;6.866;2022-08-19T13:32:59;9.30;;;6.75;;
53925;SDS011;39836;52.754;6.866;2022-08-19T13:35:44;8.13;;;6.43;;
53925;SDS011;39836;52.754;6.866;2022-08-19T13:38:11;8.98;;;5.82;;
53925;SDS011;39836;52.754;6.866;2022-08-19T13:40:38;6.30;;;5.38;;
53925;SDS011;39836;52.754;6.866;2022-08-19T13:43:05;7.43;;;6.15;;
53925;SDS011;39836;52.754;6.866;2022-08-19T13:45:32;7.95;;;5.65;;
53925;SDS011;39836;52.754;6.866;2022-08-19T13:47:59;9.98;;;7.70;;
53925;SDS011;39836;52.754;6.866;2022-08-19T13:50:27;9.63;;;7.15;;
53925;SDS011;39836;52.754;6.866;2022-08-19T13:52:56;7.90;;;6.40;;
53925;SDS011;39836;52.754;6.866;2022-08-19T13:55:22;9.35;;;7.35;;
53925;SDS011;39836;52.754;6.866;2022-08-19T13:57:52;8.05;;;6.75;;
53925;SDS011;39836;52.754;6.866;2022-08-19T14:00:20;6.47;;;5.25;;
53925;SDS011;39836;52.754;6.866;2022-08-19T14:02:47;7.80;;;5.47;;
53925;SDS011;39836;52.754;6.866;2022-08-19T14:05:17;6.95;;;5.18;;
53925;SDS011;39836;52.754;6.866;2022-08-19T14:07:43;7.28;;;4.65;;
53925;SDS011;39836;52.754;6.866;2022-08-19T14:10:10;9.32;;;6.32;;
53925;SDS011;39836;52.754;6.866;2022-08-19T14:12:37;11.02;;;6.88;;
53925;SDS011;39836;52.754;6.866;2022-08-19T14:15:04;8.45;;;7.28;;
53925;SDS011;39836;52.754;6.866;2022-08-19T14:17:31;9.20;;;6.85;;
53925;SDS011;39836;52.754;6.866;2022-08-19T14:20:00;13.50;;;8.65;;
53925;SDS011;39836;52.754;6.866;2022-08-19T14:22:33;10.02;;;7.85;;
53925;SDS011;39836;52.754;6.866;2022-08-19T14:25:00;12.98;;;8.10;;
53925;SDS011;39836;52.754;6.866;2022-08-19T14:27:25;11.07;;;6.95;;
53925;SDS011;39836;52.754;6.866;2022-08-19T14:29:51;9.65;;;6.55;;
53925;SDS011;39836;52.754;6.866;2022-08-19T14:32:17;12.95;;;5.50;;
53925;SDS011;39836;52.754;6.866;2022-08-19T14:34:43;7.05;;;4.10;;
53925;SDS011;39836;52.754;6.866;2022-08-19T14:37:12;4.78;;;3.63;;
53925;SDS011;39836;52.754;6.866;2022-08-19T14:39:39;5.75;;;4.30;;
53925;SDS011;39836;52.754;6.866;2022-08-19T14:42:06;7.00;;;4.97;;